createdAt,value
2023-02-19T00:01:48.204Z,8.90
2023-02-19T00:04:17.819Z,8.80
2023-02-19T00:06:46.632Z,8.70
2023-02-19T00:09:15.969Z,8.50
2023-02-19T00:11:44.098Z,8.40
2023-02-19T00:14:15.895Z,8.40
2023-02-19T00:16:43.464Z,8.30
2023-02-19T00:19:18.964Z,8.30
2023-02-19T00:21:46.542Z,8.40
2023-02-19T00:24:15.034Z,8.40
2023-02-19T00:26:43.621Z,8.40
2023-02-19T00:29:15.809Z,8.40
2023-02-19T00:31:43.593Z,8.50
2023-02-19T00:34:12.095Z,8.50
2023-02-19T00:36:41.536Z,8.60
2023-02-19T00:39:12.311Z,8.70
2023-02-19T00:41:39.426Z,8.60
2023-02-19T00:44:08.465Z,8.70
2023-02-19T00:46:39.556Z,8.70
2023-02-19T00:49:08.548Z,8.60
2023-02-19T00:51:38.618Z,8.70
2023-02-19T00:54:06.562Z,8.70
2023-02-19T00:56:34.512Z,8.70
2023-02-19T00:59:01.948Z,8.80
2023-02-19T01:01:29.119Z,8.80
2023-02-19T01:03:56.275Z,8.80
2023-02-19T01:06:24.042Z,8.80
2023-02-19T01:08:51.246Z,8.80
2023-02-19T01:11:20.505Z,8.90
2023-02-19T01:13:48.935Z,8.90
2023-02-19T01:16:27.580Z,8.90
2023-02-19T01:18:55.278Z,8.90
2023-02-19T01:21:25.238Z,8.90
2023-02-19T01:23:54.856Z,8.90
2023-02-19T01:26:27.337Z,8.90
2023-02-19T01:28:54.500Z,8.90
2023-02-19T01:31:24.883Z,8.80
2023-02-19T01:33:56.924Z,8.90
2023-02-19T01:36:24.154Z,8.90
2023-02-19T01:38:51.329Z,8.90
2023-02-19T01:41:25.349Z,8.90
2023-02-19T01:44:29.306Z,8.70
2023-02-19T01:46:57.608Z,8.60
2023-02-19T01:49:30.272Z,8.50
2023-02-19T01:52:14.069Z,8.30
2023-02-19T01:54:43.369Z,8.30
2023-02-19T01:57:18.727Z,8.30
2023-02-19T01:59:47.799Z,8.30
2023-02-19T02:02:15.050Z,8.30
2023-02-19T02:04:42.483Z,8.30
2023-02-19T02:07:29.826Z,8.20
2023-02-19T02:10:15.783Z,8.30
2023-02-19T02:12:42.839Z,8.20
2023-02-19T02:15:10.109Z,8.30
2023-02-19T02:18:17.850Z,8.40
2023-02-19T02:20:53.600Z,8.40
2023-02-19T02:23:33.152Z,8.40
2023-02-19T02:26:46.788Z,8.30
2023-02-19T02:30:04.644Z,8.40
2023-02-19T02:32:43.592Z,8.40
2023-02-19T02:35:19.372Z,8.30
2023-02-19T02:37:49.563Z,8.30
2023-02-19T02:40:19.949Z,8.30
2023-02-19T02:42:48.253Z,8.30
2023-02-19T02:45:38.100Z,8.40
2023-02-19T02:48:54.014Z,8.40
2023-02-19T02:51:36.769Z,8.30
2023-02-19T02:54:39.673Z,8.30
2023-02-19T02:57:09.475Z,8.30
2023-02-19T02:59:39.876Z,8.30
2023-02-19T03:02:18.859Z,8.30
2023-02-19T03:05:30.336Z,8.30
2023-02-19T03:08:14.699Z,8.30
2023-02-19T03:10:46.034Z,8.30
2023-02-19T03:13:47.586Z,8.30
2023-02-19T03:16:44.674Z,8.30
2023-02-19T03:19:19.254Z,8.40
2023-02-19T03:22:01.273Z,8.30
2023-02-19T03:24:52.605Z,8.30
2023-02-19T03:27:21.241Z,8.30
2023-02-19T03:29:50.561Z,8.30
2023-02-19T03:32:59.304Z,8.30
2023-02-19T03:35:31.372Z,8.30
2023-02-19T03:38:53.433Z,8.40
2023-02-19T03:41:46.211Z,8.30
2023-02-19T03:44:45.223Z,8.20
2023-02-19T03:47:26.277Z,8.20
2023-02-19T03:50:05.359Z,8.20
2023-02-19T03:53:21.821Z,8.20
2023-02-19T03:56:19.658Z,8.10
2023-02-19T03:59:16.785Z,8.10
2023-02-19T04:02:06.280Z,8.10
2023-02-19T04:04:41.599Z,8.00
2023-02-19T04:07:08.807Z,8.10
2023-02-19T04:09:47.886Z,8.10
2023-02-19T04:12:17.082Z,8.10
2023-02-19T04:15:01.720Z,8.20
2023-02-19T04:17:40.626Z,8.10
2023-02-19T04:20:11.760Z,8.10
2023-02-19T04:22:40.448Z,8.10
2023-02-19T04:25:09.069Z,8.10
2023-02-19T04:27:40.674Z,8.10
2023-02-19T04:30:10.960Z,8.10
2023-02-19T04:32:38.295Z,8.10
2023-02-19T04:35:06.805Z,8.10
2023-02-19T04:37:33.896Z,8.10
2023-02-19T04:40:00.964Z,8.00
2023-02-19T04:42:28.525Z,7.90
2023-02-19T04:44:55.632Z,7.90
2023-02-19T04:47:22.826Z,7.90
2023-02-19T04:49:49.952Z,7.80
2023-02-19T04:52:17.308Z,7.80
2023-02-19T04:54:44.354Z,7.80
2023-02-19T04:57:11.444Z,7.70
2023-02-19T04:59:38.526Z,7.70
2023-02-19T05:02:05.593Z,7.70
2023-02-19T05:04:32.962Z,7.80
2023-02-19T05:07:00.106Z,7.80
2023-02-19T05:09:27.149Z,7.80
2023-02-19T05:11:54.363Z,7.80
2023-02-19T05:14:21.498Z,7.70
2023-02-19T05:16:48.757Z,7.70
2023-02-19T05:19:15.874Z,7.60
2023-02-19T05:21:42.961Z,7.70
2023-02-19T05:24:10.192Z,7.70
2023-02-19T05:26:37.483Z,7.70
2023-02-19T05:29:04.734Z,7.70
2023-02-19T05:31:33.895Z,7.70
2023-02-19T05:34:01.227Z,7.60
2023-02-19T05:36:28.432Z,7.70
2023-02-19T05:38:57.902Z,7.60
2023-02-19T05:41:28.099Z,7.70
2023-02-19T05:43:57.131Z,7.80
2023-02-19T05:46:29.479Z,7.70
2023-02-19T05:48:56.940Z,7.70
2023-02-19T05:51:26.279Z,7.80
2023-02-19T05:53:56.418Z,7.70
2023-02-19T05:56:26.263Z,7.70
2023-02-19T05:58:54.616Z,7.60
2023-02-19T06:01:25.849Z,7.60
2023-02-19T06:03:56.012Z,7.60
2023-02-19T06:06:25.301Z,7.60
2023-02-19T06:08:52.533Z,7.60
2023-02-19T06:11:20.313Z,7.60
2023-02-19T06:13:50.388Z,7.60
2023-02-19T06:16:18.425Z,7.60
2023-02-19T06:18:48.574Z,7.60
2023-02-19T06:21:18.145Z,7.60
2023-02-19T06:23:45.869Z,7.50
2023-02-19T06:26:23.460Z,7.50
2023-02-19T06:28:53.180Z,7.50
2023-02-19T06:31:22.484Z,7.50
2023-02-19T06:33:50.909Z,7.50
2023-02-19T06:36:24.069Z,7.50
2023-02-19T06:38:51.795Z,7.50
2023-02-19T06:41:19.347Z,7.60
2023-02-19T06:43:46.804Z,7.60
2023-02-19T06:46:14.505Z,7.50
2023-02-19T06:48:44.280Z,7.50
2023-02-19T06:51:27.233Z,7.50
2023-02-19T06:53:54.496Z,7.50
2023-02-19T06:56:33.868Z,7.50
2023-02-19T06:59:04.730Z,7.60
2023-02-19T07:01:34.383Z,7.60
2023-02-19T07:04:02.408Z,7.50
2023-02-19T07:06:30.565Z,7.50
2023-02-19T07:08:59.216Z,7.50
2023-02-19T07:11:27.239Z,7.60
2023-02-19T07:13:59.598Z,7.60
2023-02-19T07:16:27.802Z,7.60
2023-02-19T07:18:58.698Z,7.60
2023-02-19T07:21:29.792Z,7.70
2023-02-19T07:23:57.860Z,7.80
2023-02-19T07:26:25.813Z,7.70
2023-02-19T07:28:53.224Z,7.70
2023-02-19T07:31:24.210Z,7.70
2023-02-19T07:33:52.125Z,7.70
2023-02-19T07:36:22.900Z,7.80
2023-02-19T07:39:00.323Z,7.80
2023-02-19T07:41:28.320Z,7.80
2023-02-19T07:43:55.460Z,7.80
2023-02-19T07:46:23.708Z,7.80
2023-02-19T07:48:50.965Z,7.80
2023-02-19T07:51:20.913Z,7.90
2023-02-19T07:53:52.811Z,7.90
2023-02-19T07:56:21.318Z,7.90
2023-02-19T07:58:48.714Z,7.90
2023-02-19T08:01:43.388Z,7.90
2023-02-19T08:04:13.590Z,8.00
2023-02-19T08:06:41.987Z,8.00
2023-02-19T08:09:09.609Z,8.00
2023-02-19T08:11:55.408Z,8.10
2023-02-19T08:14:27.324Z,8.20
2023-02-19T08:16:54.898Z,8.30
2023-02-19T08:19:22.406Z,8.40
2023-02-19T08:21:51.088Z,8.50
2023-02-19T08:24:18.249Z,8.50
2023-02-19T08:26:45.379Z,8.60
2023-02-19T08:29:13.929Z,8.60
2023-02-19T08:31:41.100Z,8.70
2023-02-19T08:34:08.277Z,8.80
2023-02-19T08:36:35.388Z,8.90
2023-02-19T08:39:02.615Z,8.90
2023-02-19T08:41:29.730Z,8.80
2023-02-19T08:43:56.848Z,8.90
2023-02-19T08:46:23.971Z,9.00
2023-02-19T08:48:51.335Z,9.00
2023-02-19T08:51:18.534Z,9.10
2023-02-19T08:53:46.882Z,9.00
2023-02-19T08:56:17.518Z,9.00
2023-02-19T08:58:46.969Z,9.00
2023-02-19T09:01:18.674Z,9.10
2023-02-19T09:03:46.375Z,9.10
2023-02-19T09:06:20.265Z,9.10
2023-02-19T09:08:48.435Z,9.00
2023-02-19T09:11:15.926Z,9.10
2023-02-19T09:13:44.246Z,9.20
2023-02-19T09:16:12.155Z,9.30
2023-02-19T09:18:39.693Z,9.30
2023-02-19T09:21:07.148Z,9.30
2023-02-19T09:23:36.308Z,9.30
2023-02-19T09:26:07.640Z,9.30
2023-02-19T09:28:35.632Z,9.30
2023-02-19T09:31:11.771Z,9.40
2023-02-19T09:33:43.403Z,9.50
2023-02-19T09:36:10.997Z,9.60
2023-02-19T09:38:39.966Z,9.60
2023-02-19T09:41:18.850Z,9.60
2023-02-19T09:43:46.632Z,9.60
2023-02-19T09:46:43.550Z,9.70
2023-02-19T09:49:52.788Z,9.70
2023-02-19T09:52:40.048Z,9.90
2023-02-19T09:55:39.619Z,10.00
2023-02-19T09:58:30.004Z,10.00
2023-02-19T10:01:00.827Z,10.00
2023-02-19T10:03:41.363Z,10.20
2023-02-19T10:06:25.176Z,10.20
2023-02-19T10:08:59.619Z,10.20
2023-02-19T10:11:27.447Z,10.20
2023-02-19T10:14:09.400Z,10.20
2023-02-19T10:16:41.310Z,10.10
2023-02-19T10:19:13.765Z,10.30
2023-02-19T10:21:41.652Z,10.30
2023-02-19T10:24:19.829Z,10.40
2023-02-19T10:26:48.579Z,10.30
2023-02-19T10:29:15.653Z,10.30
2023-02-19T10:31:42.935Z,10.30
2023-02-19T10:34:22.358Z,10.30
2023-02-19T10:36:51.669Z,10.40
2023-02-19T10:39:53.130Z,10.40
2023-02-19T10:42:23.310Z,10.60
2023-02-19T10:45:01.946Z,10.70
2023-02-19T10:47:31.861Z,10.80
2023-02-19T10:50:03.422Z,10.90
2023-02-19T10:52:35.393Z,10.80
2023-02-19T10:55:24.928Z,10.70
2023-02-19T10:57:52.057Z,10.70
2023-02-19T11:00:26.861Z,10.70
2023-02-19T11:03:18.288Z,10.60
2023-02-19T11:06:02.883Z,10.70
2023-02-19T11:08:38.764Z,10.60
2023-02-19T11:11:06.593Z,10.60
2023-02-19T11:13:38.090Z,10.70
2023-02-19T11:16:05.927Z,10.60
2023-02-19T11:18:36.270Z,10.60
2023-02-19T11:21:06.684Z,10.50
2023-02-19T11:23:46.736Z,10.60
2023-02-19T11:26:26.104Z,10.80
2023-02-19T11:29:00.020Z,10.80
2023-02-19T11:31:36.248Z,10.80
2023-02-19T11:34:21.249Z,10.80
2023-02-19T11:37:11.454Z,10.80
2023-02-19T11:39:42.294Z,10.90
2023-02-19T11:42:51.952Z,10.90
2023-02-19T11:45:38.858Z,10.90
2023-02-19T11:48:21.839Z,10.80
2023-02-19T11:51:24.441Z,10.90
2023-02-19T11:54:32.691Z,11.10
2023-02-19T11:57:55.012Z,11.20
2023-02-19T12:00:27.779Z,11.10
2023-02-19T12:03:34.894Z,10.90
2023-02-19T12:06:57.967Z,10.80
2023-02-19T12:09:42.363Z,10.80
2023-02-19T12:12:33.141Z,10.60
2023-02-19T12:15:06.261Z,10.50
2023-02-19T12:18:28.565Z,10.50
2023-02-19T12:21:35.630Z,9.80
2023-02-19T12:24:39.281Z,8.90
2023-02-19T12:27:15.685Z,8.70
2023-02-19T12:30:08.778Z,8.70
2023-02-19T12:33:32.038Z,8.70
2023-02-19T12:36:26.747Z,8.90
2023-02-19T12:39:16.469Z,8.90
2023-02-19T12:42:08.615Z,9.10
2023-02-19T12:44:49.209Z,9.20
2023-02-19T12:47:22.757Z,9.40
2023-02-19T12:50:12.751Z,9.80
2023-02-19T12:52:45.591Z,10.20
2023-02-19T12:55:40.004Z,10.90
2023-02-19T12:58:24.838Z,11.10
2023-02-19T13:00:59.038Z,11.30
2023-02-19T13:03:33.949Z,11.30
2023-02-19T13:06:26.702Z,11.20
2023-02-19T13:09:14.120Z,11.20
2023-02-19T13:11:58.626Z,11.60
2023-02-19T13:14:39.750Z,11.90
2023-02-19T13:17:34.080Z,11.90
2023-02-19T13:20:15.915Z,11.60
2023-02-19T13:23:17.388Z,11.30
2023-02-19T13:25:44.441Z,11.30
2023-02-19T13:29:08.691Z,11.10
2023-02-19T13:32:03.916Z,11.00
2023-02-19T13:34:57.435Z,10.80
2023-02-19T13:37:25.383Z,10.80
2023-02-19T13:39:55.158Z,10.80
2023-02-19T13:42:33.996Z,10.80
2023-02-19T13:45:05.224Z,10.70
2023-02-19T13:47:54.134Z,10.60
2023-02-19T13:50:40.753Z,10.50
2023-02-19T13:53:44.729Z,10.40
2023-02-19T13:56:30.432Z,10.40
2023-02-19T13:59:01.634Z,10.20
2023-02-19T14:01:54.988Z,10.20
2023-02-19T14:04:43.048Z,10.20
2023-02-19T14:07:10.201Z,10.30
2023-02-19T14:09:37.403Z,10.30
2023-02-19T14:12:10.522Z,10.30
2023-02-19T14:14:51.883Z,10.30
2023-02-19T14:17:35.052Z,10.30
2023-02-19T14:20:45.114Z,10.40
2023-02-19T14:23:24.331Z,10.40
2023-02-19T14:25:59.804Z,10.40
2023-02-19T14:28:33.614Z,10.40
2023-02-19T14:31:30.785Z,10.40
2023-02-19T14:34:25.156Z,10.50
2023-02-19T14:37:01.066Z,10.50
2023-02-19T14:39:32.909Z,10.40
2023-02-19T14:42:08.079Z,10.40
2023-02-19T14:44:56.864Z,10.30
2023-02-19T14:47:27.872Z,10.30
2023-02-19T14:50:01.915Z,10.30
2023-02-19T14:52:47.810Z,10.40
2023-02-19T14:55:27.794Z,10.40
2023-02-19T14:57:57.293Z,10.40
2023-02-19T15:00:40.957Z,10.50
2023-02-19T15:03:37.813Z,10.50
2023-02-19T15:06:17.716Z,10.40
2023-02-19T15:08:49.489Z,10.40
2023-02-19T15:11:21.289Z,10.40
2023-02-19T15:13:59.903Z,10.30
2023-02-19T15:16:29.662Z,10.30
2023-02-19T15:18:58.824Z,10.30
2023-02-19T15:21:30.269Z,10.20
2023-02-19T15:24:04.602Z,10.20
2023-02-19T15:26:42.882Z,10.20
2023-02-19T15:29:17.546Z,10.10
2023-02-19T15:31:59.984Z,10.10
2023-02-19T15:34:30.450Z,10.10
2023-02-19T15:37:04.917Z,10.20
2023-02-19T15:39:42.070Z,10.10
2023-02-19T15:42:17.715Z,10.10
2023-02-19T15:45:08.938Z,10.10
2023-02-19T15:47:49.314Z,10.10
2023-02-19T15:50:28.400Z,10.10
2023-02-19T15:53:22.064Z,10.00
2023-02-19T15:56:10.178Z,10.00
2023-02-19T15:59:02.537Z,10.00
2023-02-19T16:01:40.133Z,10.00
2023-02-19T16:04:16.484Z,10.00
2023-02-19T16:06:56.902Z,10.00
2023-02-19T16:09:31.913Z,10.00
2023-02-19T16:12:02.044Z,10.00
2023-02-19T16:14:35.232Z,9.90
2023-02-19T16:17:28.126Z,9.90
2023-02-19T16:20:01.591Z,10.00
2023-02-19T16:22:41.235Z,9.90
2023-02-19T16:25:08.720Z,9.90
2023-02-19T16:27:41.880Z,9.90
2023-02-19T16:30:17.000Z,9.80
2023-02-19T16:32:46.892Z,9.70
2023-02-19T16:35:40.231Z,9.60
2023-02-19T16:38:16.244Z,9.60
2023-02-19T16:40:49.036Z,9.50
2023-02-19T16:43:16.072Z,9.50
2023-02-19T16:45:47.728Z,9.50
2023-02-19T16:48:15.110Z,9.50
2023-02-19T16:50:42.431Z,9.50
2023-02-19T16:53:22.003Z,9.40
2023-02-19T16:55:49.225Z,9.40
2023-02-19T16:58:16.449Z,9.40
2023-02-19T17:00:43.742Z,9.40
2023-02-19T17:03:14.827Z,9.30
2023-02-19T17:05:42.643Z,9.30
2023-02-19T17:08:40.433Z,9.40
2023-02-19T17:11:14.053Z,9.40
2023-02-19T17:13:43.443Z,9.30
2023-02-19T17:16:21.833Z,9.30
2023-02-19T17:18:50.079Z,9.30
2023-02-19T17:21:27.679Z,9.30
2023-02-19T17:23:55.929Z,9.30
2023-02-19T17:26:29.618Z,9.30
2023-02-19T17:29:01.895Z,9.30
2023-02-19T17:31:29.294Z,9.30
2023-02-19T17:33:56.611Z,9.30
2023-02-19T17:36:30.918Z,9.30
2023-02-19T17:38:59.913Z,9.40
2023-02-19T17:41:27.999Z,9.30
2023-02-19T17:43:55.378Z,9.30
2023-02-19T17:46:25.960Z,9.30
2023-02-19T17:48:54.109Z,9.20
2023-02-19T17:51:21.985Z,9.20
2023-02-19T17:53:49.298Z,9.20
2023-02-19T17:56:20.458Z,9.20
2023-02-19T17:58:49.246Z,9.20
2023-02-19T18:01:16.698Z,9.00
2023-02-19T18:03:44.586Z,9.00
2023-02-19T18:06:12.129Z,8.90
2023-02-19T18:08:39.550Z,8.80
2023-02-19T18:11:07.344Z,8.80
2023-02-19T18:13:34.510Z,8.80
2023-02-19T18:16:01.578Z,8.80
2023-02-19T18:18:30.300Z,8.80
2023-02-19T18:20:57.646Z,8.90
2023-02-19T18:23:26.375Z,8.90
2023-02-19T18:25:53.544Z,8.90
2023-02-19T18:28:20.770Z,8.90
2023-02-19T18:30:49.324Z,8.90
2023-02-19T18:33:16.567Z,8.90
2023-02-19T18:35:44.781Z,9.00
2023-02-19T18:38:12.540Z,8.90
2023-02-19T18:40:39.606Z,8.90
2023-02-19T18:43:06.721Z,8.90
2023-02-19T18:45:37.215Z,8.80
2023-02-19T18:48:05.697Z,8.80
2023-02-19T18:50:34.946Z,8.80
2023-02-19T18:53:02.485Z,8.80
2023-02-19T18:55:29.642Z,8.80
2023-02-19T18:57:56.791Z,8.80
2023-02-19T19:00:26.719Z,8.70
2023-02-19T19:02:59.571Z,8.70
2023-02-19T19:05:27.367Z,8.70
2023-02-19T19:07:56.660Z,8.70
2023-02-19T19:10:24.282Z,8.80
2023-02-19T19:12:52.190Z,8.80
2023-02-19T19:15:19.945Z,8.80
2023-02-19T19:17:49.735Z,8.90
2023-02-19T19:20:20.464Z,8.80
2023-02-19T19:22:55.587Z,8.80
2023-02-19T19:25:23.278Z,8.80
2023-02-19T19:27:51.788Z,8.80
2023-02-19T19:30:20.298Z,8.70
2023-02-19T19:32:52.622Z,8.80
2023-02-19T19:35:21.197Z,8.80
2023-02-19T19:37:49.220Z,8.70
2023-02-19T19:40:18.168Z,8.80
2023-02-19T19:42:49.069Z,8.80
2023-02-19T19:45:17.767Z,8.70
2023-02-19T19:47:44.993Z,8.60
2023-02-19T19:50:14.598Z,8.60
2023-02-19T19:52:42.155Z,8.60
2023-02-19T19:55:09.740Z,8.60
2023-02-19T19:57:39.050Z,8.60
2023-02-19T20:00:09.351Z,8.60
2023-02-19T20:02:36.531Z,8.60
2023-02-19T20:05:03.895Z,8.60
2023-02-19T20:07:31.176Z,8.60
2023-02-19T20:09:58.358Z,8.50
2023-02-19T20:12:25.584Z,8.50
2023-02-19T20:14:52.747Z,8.60
2023-02-19T20:17:19.984Z,8.60
2023-02-19T20:19:48.711Z,8.60
2023-02-19T20:22:16.175Z,8.60
2023-02-19T20:24:43.569Z,8.60
2023-02-19T20:27:10.739Z,8.60
2023-02-19T20:29:38.186Z,8.50
2023-02-19T20:32:05.950Z,8.60
2023-02-19T20:34:33.094Z,8.50
2023-02-19T20:37:01.449Z,8.50
2023-02-19T20:39:29.416Z,8.50
2023-02-19T20:41:58.438Z,8.50
2023-02-19T20:44:27.517Z,8.50
2023-02-19T20:46:55.797Z,8.50
2023-02-19T20:49:26.597Z,8.60
2023-02-19T20:52:05.215Z,8.60
2023-02-19T20:54:36.392Z,8.60
2023-02-19T20:57:05.957Z,8.60
2023-02-19T20:59:38.698Z,8.60
2023-02-19T21:02:11.447Z,8.60
2023-02-19T21:04:39.754Z,8.50
2023-02-19T21:07:07.125Z,8.50
2023-02-19T21:09:34.269Z,8.50
2023-02-19T21:12:01.477Z,8.50
2023-02-19T21:14:28.554Z,8.50
2023-02-19T21:16:55.647Z,8.50
2023-02-19T21:19:22.961Z,8.60
2023-02-19T21:21:50.180Z,8.50
2023-02-19T21:24:17.312Z,8.50
2023-02-19T21:26:45.117Z,8.50
2023-02-19T21:29:22.358Z,8.50
2023-02-19T21:31:54.582Z,8.60
2023-02-19T21:34:28.418Z,8.60
2023-02-19T21:36:56.657Z,8.50
2023-02-19T21:39:25.778Z,8.50
2023-02-19T21:41:53.931Z,8.50
2023-02-19T21:44:21.793Z,8.40
2023-02-19T21:46:50.432Z,8.40
2023-02-19T21:49:18.090Z,8.30
2023-02-19T21:51:48.121Z,8.30
2023-02-19T21:54:24.603Z,8.40
2023-02-19T21:56:53.321Z,8.40
2023-02-19T21:59:23.042Z,8.40
2023-02-19T22:01:50.815Z,8.40
2023-02-19T22:04:21.527Z,8.40
2023-02-19T22:06:48.758Z,8.40
2023-02-19T22:09:16.557Z,8.30
2023-02-19T22:11:43.689Z,8.30
2023-02-19T22:14:10.904Z,8.20
2023-02-19T22:16:38.042Z,8.20
2023-02-19T22:19:05.674Z,8.30
2023-02-19T22:21:33.175Z,8.20
2023-02-19T22:24:02.523Z,8.20
2023-02-19T22:26:34.566Z,8.20
2023-02-19T22:29:08.111Z,8.20
2023-02-19T22:31:36.114Z,8.20
2023-02-19T22:34:04.422Z,8.20
2023-02-19T22:36:33.913Z,8.20
2023-02-19T22:39:01.749Z,8.20
2023-02-19T22:41:29.139Z,8.20
2023-02-19T22:43:58.303Z,8.20
2023-02-19T22:46:29.663Z,8.20
2023-02-19T22:48:58.047Z,8.10
2023-02-19T22:51:26.695Z,8.10
2023-02-19T22:53:56.897Z,8.10
2023-02-19T22:56:27.296Z,8.20
2023-02-19T22:58:56.519Z,8.10
2023-02-19T23:01:25.058Z,8.20
2023-02-19T23:03:55.618Z,8.20
2023-02-19T23:06:32.547Z,8.20
2023-02-19T23:09:05.847Z,8.20
2023-02-19T23:11:39.045Z,8.20
2023-02-19T23:14:07.537Z,8.20
2023-02-19T23:16:36.733Z,8.10
2023-02-19T23:19:11.550Z,8.10
2023-02-19T23:21:40.654Z,8.10
2023-02-19T23:24:08.069Z,8.00
2023-02-19T23:26:35.738Z,7.90
2023-02-19T23:29:03.140Z,7.90
2023-02-19T23:31:30.358Z,7.90
2023-02-19T23:33:57.564Z,7.90
2023-02-19T23:36:25.030Z,7.90
2023-02-19T23:38:52.137Z,7.80
2023-02-19T23:41:19.522Z,7.80
2023-02-19T23:43:46.789Z,7.70
2023-02-19T23:46:18.576Z,7.70
2023-02-19T23:48:46.471Z,7.60
2023-02-19T23:51:14.181Z,7.60
2023-02-19T23:53:41.463Z,7.70
2023-02-19T23:56:09.024Z,7.70
2023-02-19T23:58:36.230Z,7.70
